Latest Weather Observations for Fawkner Beacon

IDV60901

Issued at 1:31 am EDT Monday 18 February 2019 (issued every 10 minutes, with the page automatically refreshed every 10 minutes)

About weather observations | Map of Melbourne area stations | Latest observations for Melbourne area | Other Formats
Station Details ID: 086376 Name: FAWKNER BEACON Lat: -37.95 Lon: 144.93 Height: 17.0 m
Data from the previous 72 hours. | See also: Recent months at Fawkner Beacon
Date/Time
EDT
Temp
°C
App
Temp
°C
Dew
Point
°C
Rel
Hum
%
Delta-T
°C
Wind Press
QNH
hPa
Press
MSL
hPa
Rain since
9am
mm
Dir  Spd
km/h
Gust
km/h
Spd
kts
Gust
kts
18/01:30am - - - - - SSW 35 44 19 24 - - -
18/01:01am - - - - - SSW 35 61 19 33 - - -
18/01:00am - - - - - SSW 35 61 19 33 - - -
18/12:55am - - - - - SSW 17 52 9 28 - - -
18/12:30am - - - - - WSW 9 15 5 8 - - -
18/12:00am - - - - - NW 15 20 8 11 - - -
 
Date/Time
EDT
Temp
°C
App
Temp
°C
Dew
Point
°C
Rel
Hum
%
Delta-T
°C
Wind Press
QNH
hPa
Press
MSL
hPa
Rain since
9am
mm
Dir  Spd
km/h
Gust
km/h
Spd
kts
Gust
kts
17/11:30pm - - - - - N 6 9 3 5 - - -
17/11:00pm - - - - - N 6 7 3 4 - - -
17/10:30pm - - - - - ESE 2 6 1 3 - - -
17/10:00pm - - - - - ENE 11 11 6 6 - - -
17/09:30pm - - - - - ENE 13 17 7 9 - - -
17/09:00pm - - - - - E 13 15 7 8 - - -
17/08:30pm - - - - - E 17 20 9 11 - - -
17/08:00pm - - - - - E 15 17 8 9 - - -
17/07:30pm - - - - - ESE 15 15 8 8 - - -
17/07:00pm - - - - - ESE 13 15 7 8 - - -
17/06:30pm - - - - - SE 13 15 7 8 - - -
17/06:00pm - - - - - ESE 15 17 8 9 - - -
17/05:30pm - - - - - ESE 11 15 6 8 - - -
17/05:00pm - - - - - E 15 17 8 9 - - -
17/04:30pm - - - - - ESE 17 20 9 11 - - -
17/04:00pm - - - - - SE 22 24 12 13 - - -
17/03:30pm - - - - - SE 19 22 10 12 - - -
17/03:00pm - - - - - SE 17 24 9 13 - - -
17/02:30pm - - - - - ESE 11 13 6 7 - - -
17/02:00pm - - - - - SE 9 11 5 6 - - -
17/01:30pm - - - - - SE 9 11 5 6 - - -
17/01:00pm - - - - - SSE 9 9 5 5 - - -
17/12:30pm - - - - - S 9 11 5 6 - - -
17/12:00pm - - - - - S 7 9 4 5 - - -
17/11:30am - - - - - SW 6 7 3 4 - - -
17/11:00am - - - - - WSW 2 6 1 3 - - -
17/10:30am - - - - - W 6 7 3 4 - - -
17/10:00am - - - - - N 6 7 3 4 - - -
17/09:30am - - - - - N 6 11 3 6 - - -
17/09:00am - - - - - N 9 13 5 7 - - -
17/08:30am - - - - - N 9 13 5 7 - - -
17/08:00am - - - - - N 9 15 5 8 - - -
17/07:30am - - - - - N 6 9 3 5 - - -
17/07:00am - - - - - N 6 9 3 5 - - -
17/06:30am - - - - - N 6 7 3 4 - - -
17/06:00am - - - - - NNE 6 7 3 4 - - -
17/05:30am - - - - - NE 9 11 5 6 - - -
17/05:00am - - - - - NE 9 11 5 6 - - -
17/04:30am - - - - - ENE 7 9 4 5 - - -
17/04:00am - - - - - ENE 9 13 5 7 - - -
17/03:30am - - - - - ENE 9 11 5 6 - - -
17/03:00am - - - - - E 9 13 5 7 - - -
17/02:30am - - - - - E 7 11 4 6 - - -
17/02:00am - - - - - E 7 9 4 5 - - -
17/01:30am - - - - - ESE 7 11 4 6 - - -
17/01:00am - - - - - E 11 13 6 7 - - -
17/12:30am - - - - - ENE 11 15 6 8 - - -
17/12:00am - - - - - SE 11 15 6 8 - - -
 
Date/Time
EDT
Temp
°C
App
Temp
°C
Dew
Point
°C
Rel
Hum
%
Delta-T
°C
Wind Press
QNH
hPa
Press
MSL
hPa
Rain since
9am
mm
Dir  Spd
km/h
Gust
km/h
Spd
kts
Gust
kts
16/11:30pm - - - - - ESE 11 17 6 9 - - -
16/11:00pm - - - - - ESE 13 15 7 8 - - -
16/10:30pm - - - - - ESE 17 22 9 12 - - -
16/10:00pm - - - - - SE 15 20 8 11 - - -
16/09:30pm - - - - - SSE 19 24 10 13 - - -
16/09:00pm - - - - - SE 17 22 9 12 - - -
16/08:30pm - - - - - SSE 22 26 12 14 - - -
16/08:00pm - - - - - S 26 30 14 16 - - -
16/07:30pm - - - - - S 28 33 15 18 - - -
16/07:00pm - - - - - S 33 39 18 21 - - -
16/06:30pm - - - - - S 32 39 17 21 - - -
16/06:00pm - - - - - S 33 39 18 21 - - -
16/05:30pm - - - - - S 32 35 17 19 - - -
16/05:00pm - - - - - SSW 28 33 15 18 - - -
16/04:30pm - - - - - S 26 28 14 15 - - -
16/04:00pm - - - - - S 26 32 14 17 - - -
16/03:30pm - - - - - S 30 33 16 18 - - -
16/03:00pm - - - - - S 28 32 15 17 - - -
16/02:30pm - - - - - S 24 30 13 16 - - -
16/02:00pm - - - - - S 22 26 12 14 - - -
16/01:30pm - - - - - S 20 24 11 13 - - -
16/01:00pm - - - - - SSW 13 17 7 9 - - -
16/12:30pm - - - - - S 9 13 5 7 - - -
16/12:00pm - - - - - SSW 9 13 5 7 - - -
16/11:30am - - - - - WSW 7 11 4 6 - - -
16/11:00am - - - - - W 7 11 4 6 - - -
16/10:30am - - - - - WNW 9 13 5 7 - - -
16/10:00am - - - - - WNW 11 15 6 8 - - -
16/09:30am - - - - - NW 11 15 6 8 - - -
16/09:00am - - - - - NNW 9 11 5 6 - - -
16/08:30am - - - - - N 9 15 5 8 - - -
16/08:00am - - - - - N 13 20 7 11 - - -
16/07:30am - - - - - WSW 6 9 3 5 - - -
16/07:00am - - - - - WSW 2 7 1 4 - - -
16/06:30am - - - - - CALM 0 0 0 0 - - -
16/06:00am - - - - - SSW 6 11 3 6 - - -
16/05:30am - - - - - SSE 6 9 3 5 - - -
16/05:00am - - - - - SE 13 17 7 9 - - -
16/04:30am - - - - - SSE 13 20 7 11 - - -
16/04:00am - - - - - S 11 15 6 8 - - -
16/03:30am - - - - - SSE 13 17 7 9 - - -
16/03:00am - - - - - SSE 13 17 7 9 - - -
16/02:30am - - - - - SSE 13 15 7 8 - - -
16/02:00am - - - - - SE 13 15 7 8 - - -
16/01:30am - - - - - SE 13 17 7 9 - - -
16/01:00am - - - - - SE 15 22 8 12 - - -
16/12:30am - - - - - SE 17 22 9 12 - - -
16/12:00am - - - - - SSE 19 24 10 13 - - -
 
Date/Time
EDT
Temp
°C
App
Temp
°C
Dew
Point
°C
Rel
Hum
%
Delta-T
°C
Wind Press
QNH
hPa
Press
MSL
hPa
Rain since
9am
mm
Dir  Spd
km/h
Gust
km/h
Spd
kts
Gust
kts
15/11:30pm - - - - - SSE 22 28 12 15 - - -
15/11:00pm - - - - - SSE 20 26 11 14 - - -
15/10:30pm - - - - - SSE 22 26 12 14 - - -
15/10:00pm - - - - - SSE 24 28 13 15 - - -
15/09:30pm - - - - - SSE 22 28 12 15 - - -
15/09:00pm - - - - - SSE 24 28 13 15 - - -
15/08:30pm - - - - - SSE 26 32 14 17 - - -
15/08:00pm - - - - - SSE 28 32 15 17 - - -
15/07:30pm - - - - - SSE 32 35 17 19 - - -
15/07:00pm - - - - - SSE 30 35 16 19 - - -
15/06:30pm - - - - - SSE 32 35 17 19 - - -
15/06:00pm - - - - - SSE 35 41 19 22 - - -
15/05:30pm - - - - - SSE 32 35 17 19 - - -
15/05:00pm - - - - - S 33 41 18 22 - - -
15/04:30pm - - - - - S 32 39 17 21 - - -
15/04:00pm - - - - - S 32 35 17 19 - - -
15/03:30pm - - - - - S 30 35 16 19 - - -
15/03:00pm - - - - - SSW 28 32 15 17 - - -
15/02:30pm - - - - - S 26 32 14 17 - - -
15/02:00pm - - - - - SSW 22 26 12 14 - - -
15/01:30pm - - - - - S 22 26 12 14 - - -
15/01:00pm - - - - - S 17 22 9 12 - - -
15/12:30pm - - - - - S 13 17 7 9 - - -
15/12:00pm - - - - - S 13 15 7 8 - - -
15/11:30am - - - - - S 13 17 7 9 - - -
15/11:00am - - - - - SE 9 15 5 8 - - -
15/10:30am - - - - - ESE 13 17 7 9 - - -
15/10:00am - - - - - ESE 13 20 7 11 - - -
15/09:30am - - - - - ESE 15 22 8 12 - - -
15/09:00am - - - - - ESE 13 17 7 9 - - -
15/08:30am - - - - - E 11 15 6 8 - - -
15/08:00am - - - - - E 13 17 7 9 - - -
15/07:30am - - - - - ENE 13 20 7 11 - - -
15/07:00am - - - - - E 15 20 8 11 - - -
15/06:30am - - - - - E 15 20 8 11 - - -
15/06:00am - - - - - E 13 20 7 11 - - -
15/05:30am - - - - - SSE 9 13 5 7 - - -
15/05:00am - - - - - SSE 13 17 7 9 - - -
15/04:30am - - - - - S 13 20 7 11 - - -
15/04:00am - - - - - S 11 15 6 8 - - -
15/03:30am - - - - - SE 11 15 6 8 - - -
15/03:00am - - - - - SE 13 17 7 9 - - -
15/02:30am - - - - - SE 13 17 7 9 - - -
15/02:00am - - - - - SSE 13 24 7 13 - - -

Latest Capital City Observations: Canberra | Sydney | Melbourne | Brisbane | Adelaide | Perth | Hobart | Darwin

Other Formats:

Comma delimited format used in spreadsheet applications
http://www.bom.gov.au/fwo/IDV60901/IDV60901.95872.axf

JavaScript Object Notation format (JSON) in row-major order
http://www.bom.gov.au/fwo/IDV60901/IDV60901.95872.json